sensor_id;sensor_type;location;lat;lon;timestamp;P1;durP1;ratioP1;P2;durP2;ratioP2
10471;SDS011;5283;48.876;8.962;2023-04-25T00:02:01;4.50;;;4.10;;
10471;SDS011;5283;48.876;8.962;2023-04-25T00:04:29;5.43;;;4.13;;
10471;SDS011;5283;48.876;8.962;2023-04-25T00:06:56;4.70;;;3.77;;
10471;SDS011;5283;48.876;8.962;2023-04-25T00:09:23;5.10;;;3.67;;
10471;SDS011;5283;48.876;8.962;2023-04-25T00:11:50;4.47;;;4.07;;
10471;SDS011;5283;48.876;8.962;2023-04-25T00:14:17;4.00;;;3.70;;
10471;SDS011;5283;48.876;8.962;2023-04-25T00:16:43;3.63;;;3.33;;
10471;SDS011;5283;48.876;8.962;2023-04-25T00:19:10;3.80;;;3.50;;
10471;SDS011;5283;48.876;8.962;2023-04-25T00:21:37;4.17;;;3.77;;
10471;SDS011;5283;48.876;8.962;2023-04-25T00:24:07;4.40;;;4.00;;
10471;SDS011;5283;48.876;8.962;2023-04-25T00:26:34;4.57;;;4.17;;
10471;SDS011;5283;48.876;8.962;2023-04-25T00:29:02;4.47;;;4.07;;
10471;SDS011;5283;48.876;8.962;2023-04-25T00:31:29;6.07;;;4.17;;
10471;SDS011;5283;48.876;8.962;2023-04-25T00:33:56;4.83;;;4.37;;
10471;SDS011;5283;48.876;8.962;2023-04-25T00:36:23;4.70;;;4.30;;
10471;SDS011;5283;48.876;8.962;2023-04-25T00:38:49;4.90;;;4.40;;
10471;SDS011;5283;48.876;8.962;2023-04-25T00:41:16;5.13;;;4.23;;
10471;SDS011;5283;48.876;8.962;2023-04-25T00:43:44;6.67;;;5.00;;
10471;SDS011;5283;48.876;8.962;2023-04-25T00:46:11;6.37;;;5.17;;
10471;SDS011;5283;48.876;8.962;2023-04-25T00:48:39;5.43;;;4.93;;
10471;SDS011;5283;48.876;8.962;2023-04-25T00:51:05;5.93;;;4.80;;
10471;SDS011;5283;48.876;8.962;2023-04-25T00:53:33;5.20;;;4.70;;
10471;SDS011;5283;48.876;8.962;2023-04-25T00:56:00;5.80;;;5.30;;
10471;SDS011;5283;48.876;8.962;2023-04-25T00:58:28;6.10;;;5.20;;
10471;SDS011;5283;48.876;8.962;2023-04-25T01:00:55;5.33;;;4.83;;
10471;SDS011;5283;48.876;8.962;2023-04-25T01:03:23;5.20;;;4.73;;
10471;SDS011;5283;48.876;8.962;2023-04-25T01:05:50;5.17;;;4.50;;
10471;SDS011;5283;48.876;8.962;2023-04-25T01:08:17;5.00;;;4.50;;
10471;SDS011;5283;48.876;8.962;2023-04-25T01:10:44;5.27;;;4.77;;
10471;SDS011;5283;48.876;8.962;2023-04-25T01:13:11;5.13;;;4.60;;
10471;SDS011;5283;48.876;8.962;2023-04-25T01:15:37;5.70;;;4.73;;
10471;SDS011;5283;48.876;8.962;2023-04-25T01:18:05;5.37;;;4.87;;
10471;SDS011;5283;48.876;8.962;2023-04-25T01:20:32;6.33;;;5.50;;
10471;SDS011;5283;48.876;8.962;2023-04-25T01:23:00;7.67;;;5.67;;
10471;SDS011;5283;48.876;8.962;2023-04-25T01:25:32;5.87;;;5.27;;
10471;SDS011;5283;48.876;8.962;2023-04-25T01:28:02;6.33;;;5.17;;
10471;SDS011;5283;48.876;8.962;2023-04-25T01:30:28;6.50;;;5.50;;
10471;SDS011;5283;48.876;8.962;2023-04-25T01:32:56;6.17;;;5.57;;
10471;SDS011;5283;48.876;8.962;2023-04-25T01:35:25;6.13;;;5.50;;
10471;SDS011;5283;48.876;8.962;2023-04-25T01:37:51;6.77;;;5.73;;
10471;SDS011;5283;48.876;8.962;2023-04-25T01:40:18;6.87;;;5.90;;
10471;SDS011;5283;48.876;8.962;2023-04-25T01:42:48;7.27;;;6.57;;
10471;SDS011;5283;48.876;8.962;2023-04-25T01:45:15;11.13;;;6.77;;
10471;SDS011;5283;48.876;8.962;2023-04-25T01:47:50;6.63;;;6.03;;
10471;SDS011;5283;48.876;8.962;2023-04-25T01:50:17;8.80;;;6.53;;
10471;SDS011;5283;48.876;8.962;2023-04-25T01:52:45;6.97;;;6.30;;
10471;SDS011;5283;48.876;8.962;2023-04-25T01:55:11;7.53;;;6.67;;
10471;SDS011;5283;48.876;8.962;2023-04-25T01:57:38;9.03;;;7.10;;
10471;SDS011;5283;48.876;8.962;2023-04-25T02:00:06;7.07;;;6.37;;
10471;SDS011;5283;48.876;8.962;2023-04-25T02:02:33;8.80;;;6.40;;
10471;SDS011;5283;48.876;8.962;2023-04-25T02:05:00;9.27;;;7.00;;
10471;SDS011;5283;48.876;8.962;2023-04-25T02:07:27;7.70;;;6.90;;
10471;SDS011;5283;48.876;8.962;2023-04-25T02:09:53;7.93;;;7.00;;
10471;SDS011;5283;48.876;8.962;2023-04-25T02:12:20;8.67;;;7.27;;
10471;SDS011;5283;48.876;8.962;2023-04-25T02:14:47;7.63;;;6.80;;
10471;SDS011;5283;48.876;8.962;2023-04-25T02:17:13;8.53;;;6.80;;
10471;SDS011;5283;48.876;8.962;2023-04-25T02:19:40;8.40;;;6.93;;
10471;SDS011;5283;48.876;8.962;2023-04-25T02:22:07;9.30;;;6.63;;
10471;SDS011;5283;48.876;8.962;2023-04-25T02:24:34;8.27;;;7.20;;
10471;SDS011;5283;48.876;8.962;2023-04-25T02:27:00;12.53;;;7.13;;
10471;SDS011;5283;48.876;8.962;2023-04-25T02:29:27;9.50;;;7.13;;
10471;SDS011;5283;48.876;8.962;2023-04-25T02:31:55;9.90;;;7.13;;
10471;SDS011;5283;48.876;8.962;2023-04-25T02:34:21;7.30;;;6.53;;
10471;SDS011;5283;48.876;8.962;2023-04-25T02:36:48;7.90;;;6.97;;
10471;SDS011;5283;48.876;8.962;2023-04-25T02:39:16;7.77;;;6.97;;
10471;SDS011;5283;48.876;8.962;2023-04-25T02:41:43;7.37;;;6.57;;
10471;SDS011;5283;48.876;8.962;2023-04-25T02:44:10;8.17;;;6.43;;
10471;SDS011;5283;48.876;8.962;2023-04-25T02:46:37;7.73;;;6.30;;
10471;SDS011;5283;48.876;8.962;2023-04-25T02:49:05;6.90;;;6.20;;
10471;SDS011;5283;48.876;8.962;2023-04-25T02:51:32;8.43;;;6.63;;
10471;SDS011;5283;48.876;8.962;2023-04-25T02:53:59;8.23;;;6.83;;
10471;SDS011;5283;48.876;8.962;2023-04-25T02:56:25;6.90;;;6.20;;
10471;SDS011;5283;48.876;8.962;2023-04-25T02:58:53;7.40;;;6.60;;
10471;SDS011;5283;48.876;8.962;2023-04-25T03:01:20;6.93;;;5.83;;
10471;SDS011;5283;48.876;8.962;2023-04-25T03:03:47;9.07;;;6.07;;
10471;SDS011;5283;48.876;8.962;2023-04-25T03:06:14;6.87;;;5.87;;
10471;SDS011;5283;48.876;8.962;2023-04-25T03:08:41;7.63;;;5.73;;
10471;SDS011;5283;48.876;8.962;2023-04-25T03:11:09;10.13;;;6.47;;
10471;SDS011;5283;48.876;8.962;2023-04-25T03:13:35;6.83;;;6.23;;
10471;SDS011;5283;48.876;8.962;2023-04-25T03:16:02;9.63;;;7.20;;
10471;SDS011;5283;48.876;8.962;2023-04-25T03:18:29;10.13;;;8.40;;
10471;SDS011;5283;48.876;8.962;2023-04-25T03:20:56;9.30;;;8.40;;
10471;SDS011;5283;48.876;8.962;2023-04-25T03:23:23;9.80;;;8.67;;
10471;SDS011;5283;48.876;8.962;2023-04-25T03:25:49;9.73;;;7.27;;
10471;SDS011;5283;48.876;8.962;2023-04-25T03:28:16;7.83;;;6.57;;
10471;SDS011;5283;48.876;8.962;2023-04-25T03:30:43;9.33;;;7.37;;
10471;SDS011;5283;48.876;8.962;2023-04-25T03:33:10;8.50;;;7.70;;
10471;SDS011;5283;48.876;8.962;2023-04-25T03:35:38;8.97;;;7.43;;
10471;SDS011;5283;48.876;8.962;2023-04-25T03:38:05;8.47;;;7.67;;
10471;SDS011;5283;48.876;8.962;2023-04-25T03:40:31;8.30;;;7.50;;
10471;SDS011;5283;48.876;8.962;2023-04-25T03:42:58;9.43;;;7.27;;
10471;SDS011;5283;48.876;8.962;2023-04-25T03:45:25;7.80;;;6.70;;
10471;SDS011;5283;48.876;8.962;2023-04-25T03:47:52;7.43;;;6.50;;
10471;SDS011;5283;48.876;8.962;2023-04-25T03:50:18;8.83;;;7.00;;
10471;SDS011;5283;48.876;8.962;2023-04-25T03:52:46;8.57;;;6.47;;
10471;SDS011;5283;48.876;8.962;2023-04-25T03:55:12;7.27;;;6.57;;
10471;SDS011;5283;48.876;8.962;2023-04-25T03:57:39;10.60;;;6.73;;
10471;SDS011;5283;48.876;8.962;2023-04-25T04:00:06;8.70;;;6.87;;
10471;SDS011;5283;48.876;8.962;2023-04-25T04:02:33;8.03;;;7.23;;
10471;SDS011;5283;48.876;8.962;2023-04-25T04:05:03;8.33;;;7.53;;
10471;SDS011;5283;48.876;8.962;2023-04-25T04:07:30;9.63;;;8.63;;
10471;SDS011;5283;48.876;8.962;2023-04-25T04:09:59;9.00;;;8.10;;
10471;SDS011;5283;48.876;8.962;2023-04-25T04:12:25;10.67;;;8.90;;
10471;SDS011;5283;48.876;8.962;2023-04-25T04:14:52;9.37;;;8.37;;
10471;SDS011;5283;48.876;8.962;2023-04-25T04:23:03;9.73;;;7.70;;
10471;SDS011;5283;48.876;8.962;2023-04-25T04:25:31;8.80;;;7.93;;
10471;SDS011;5283;48.876;8.962;2023-04-25T04:27:58;8.63;;;7.73;;
10471;SDS011;5283;48.876;8.962;2023-04-25T04:30:25;9.57;;;8.23;;
10471;SDS011;5283;48.876;8.962;2023-04-25T04:32:51;9.67;;;8.10;;
10471;SDS011;5283;48.876;8.962;2023-04-25T04:35:18;9.03;;;8.13;;
10471;SDS011;5283;48.876;8.962;2023-04-25T04:37:45;10.43;;;8.00;;
10471;SDS011;5283;48.876;8.962;2023-04-25T04:40:12;7.80;;;7.00;;
10471;SDS011;5283;48.876;8.962;2023-04-25T04:42:44;7.63;;;6.87;;
10471;SDS011;5283;48.876;8.962;2023-04-25T04:45:11;6.50;;;5.80;;
10471;SDS011;5283;48.876;8.962;2023-04-25T04:47:39;7.00;;;6.07;;
10471;SDS011;5283;48.876;8.962;2023-04-25T04:50:07;8.27;;;6.00;;
10471;SDS011;5283;48.876;8.962;2023-04-25T04:52:35;7.43;;;6.13;;
10471;SDS011;5283;48.876;8.962;2023-04-25T04:55:03;6.70;;;6.00;;
10471;SDS011;5283;48.876;8.962;2023-04-25T04:57:31;6.30;;;5.70;;
10471;SDS011;5283;48.876;8.962;2023-04-25T04:59:58;6.53;;;5.87;;
10471;SDS011;5283;48.876;8.962;2023-04-25T05:02:25;8.77;;;5.30;;
10471;SDS011;5283;48.876;8.962;2023-04-25T05:04:52;5.40;;;5.00;;
10471;SDS011;5283;48.876;8.962;2023-04-25T05:07:19;6.30;;;4.97;;
10471;SDS011;5283;48.876;8.962;2023-04-25T05:09:46;6.33;;;5.57;;
10471;SDS011;5283;48.876;8.962;2023-04-25T05:12:12;5.57;;;5.00;;
10471;SDS011;5283;48.876;8.962;2023-04-25T05:14:39;6.17;;;4.70;;
10471;SDS011;5283;48.876;8.962;2023-04-25T05:17:06;4.57;;;4.27;;
10471;SDS011;5283;48.876;8.962;2023-04-25T05:19:34;5.63;;;5.13;;
10471;SDS011;5283;48.876;8.962;2023-04-25T05:22:02;7.13;;;4.97;;
10471;SDS011;5283;48.876;8.962;2023-04-25T05:24:29;7.23;;;4.77;;
10471;SDS011;5283;48.876;8.962;2023-04-25T05:26:56;5.20;;;4.70;;
10471;SDS011;5283;48.876;8.962;2023-04-25T05:29:23;4.70;;;4.10;;
10471;SDS011;5283;48.876;8.962;2023-04-25T05:31:50;5.43;;;4.30;;
10471;SDS011;5283;48.876;8.962;2023-04-25T05:34:17;4.80;;;4.40;;
10471;SDS011;5283;48.876;8.962;2023-04-25T05:36:43;5.40;;;4.90;;
10471;SDS011;5283;48.876;8.962;2023-04-25T05:39:10;5.27;;;4.10;;
10471;SDS011;5283;48.876;8.962;2023-04-25T05:41:37;5.07;;;4.23;;
10471;SDS011;5283;48.876;8.962;2023-04-25T05:44:04;4.80;;;4.30;;
10471;SDS011;5283;48.876;8.962;2023-04-25T05:46:33;4.90;;;4.40;;
10471;SDS011;5283;48.876;8.962;2023-04-25T05:49:00;5.37;;;4.43;;
10471;SDS011;5283;48.876;8.962;2023-04-25T05:51:26;4.73;;;4.33;;
10471;SDS011;5283;48.876;8.962;2023-04-25T05:53:53;5.10;;;4.60;;
10471;SDS011;5283;48.876;8.962;2023-04-25T05:56:20;5.07;;;4.60;;
10471;SDS011;5283;48.876;8.962;2023-04-25T05:58:47;5.37;;;4.83;;
10471;SDS011;5283;48.876;8.962;2023-04-25T06:01:13;5.87;;;4.70;;
10471;SDS011;5283;48.876;8.962;2023-04-25T06:03:40;4.27;;;3.97;;
10471;SDS011;5283;48.876;8.962;2023-04-25T06:06:09;3.90;;;3.60;;
10471;SDS011;5283;48.876;8.962;2023-04-25T06:08:36;4.67;;;3.50;;
10471;SDS011;5283;48.876;8.962;2023-04-25T06:11:03;3.77;;;3.47;;
10471;SDS011;5283;48.876;8.962;2023-04-25T06:13:30;3.63;;;3.33;;
10471;SDS011;5283;48.876;8.962;2023-04-25T06:15:57;3.73;;;3.37;;
10471;SDS011;5283;48.876;8.962;2023-04-25T06:18:24;3.70;;;3.37;;
10471;SDS011;5283;48.876;8.962;2023-04-25T06:20:51;3.47;;;3.17;;
10471;SDS011;5283;48.876;8.962;2023-04-25T06:23:17;3.27;;;3.07;;
10471;SDS011;5283;48.876;8.962;2023-04-25T06:25:44;3.53;;;3.23;;
10471;SDS011;5283;48.876;8.962;2023-04-25T06:28:11;4.60;;;3.20;;
10471;SDS011;5283;48.876;8.962;2023-04-25T06:30:38;4.27;;;3.20;;
10471;SDS011;5283;48.876;8.962;2023-04-25T06:33:04;3.83;;;3.40;;
10471;SDS011;5283;48.876;8.962;2023-04-25T06:35:31;3.70;;;3.40;;
10471;SDS011;5283;48.876;8.962;2023-04-25T06:37:59;5.03;;;3.30;;
10471;SDS011;5283;48.876;8.962;2023-04-25T06:40:26;5.50;;;3.90;;
10471;SDS011;5283;48.876;8.962;2023-04-25T06:42:53;3.77;;;3.43;;
10471;SDS011;5283;48.876;8.962;2023-04-25T06:45:19;3.40;;;3.10;;
10471;SDS011;5283;48.876;8.962;2023-04-25T06:47:46;3.10;;;2.90;;
10471;SDS011;5283;48.876;8.962;2023-04-25T06:50:13;3.27;;;2.97;;
10471;SDS011;5283;48.876;8.962;2023-04-25T06:52:39;3.40;;;3.10;;
10471;SDS011;5283;48.876;8.962;2023-04-25T06:55:06;3.33;;;3.03;;
10471;SDS011;5283;48.876;8.962;2023-04-25T06:57:33;3.20;;;2.90;;
10471;SDS011;5283;48.876;8.962;2023-04-25T07:00:06;3.23;;;2.93;;
10471;SDS011;5283;48.876;8.962;2023-04-25T07:02:35;4.07;;;3.30;;
10471;SDS011;5283;48.876;8.962;2023-04-25T07:05:02;5.33;;;3.30;;
10471;SDS011;5283;48.876;8.962;2023-04-25T07:07:30;4.07;;;3.30;;
10471;SDS011;5283;48.876;8.962;2023-04-25T07:09:57;3.40;;;3.20;;
10471;SDS011;5283;48.876;8.962;2023-04-25T07:12:24;3.10;;;2.90;;
10471;SDS011;5283;48.876;8.962;2023-04-25T07:14:50;3.50;;;3.20;;
10471;SDS011;5283;48.876;8.962;2023-04-25T07:17:17;3.30;;;3.00;;
10471;SDS011;5283;48.876;8.962;2023-04-25T07:19:44;3.83;;;3.37;;
10471;SDS011;5283;48.876;8.962;2023-04-25T07:22:11;3.03;;;2.73;;
10471;SDS011;5283;48.876;8.962;2023-04-25T07:24:38;3.27;;;2.97;;
10471;SDS011;5283;48.876;8.962;2023-04-25T07:27:05;3.70;;;3.37;;
10471;SDS011;5283;48.876;8.962;2023-04-25T07:29:32;3.87;;;3.43;;
10471;SDS011;5283;48.876;8.962;2023-04-25T07:31:58;3.67;;;3.37;;
10471;SDS011;5283;48.876;8.962;2023-04-25T07:34:25;4.03;;;3.30;;
10471;SDS011;5283;48.876;8.962;2023-04-25T07:36:52;4.07;;;3.73;;
10471;SDS011;5283;48.876;8.962;2023-04-25T07:39:19;3.97;;;3.60;;
10471;SDS011;5283;48.876;8.962;2023-04-25T07:41:46;4.40;;;4.00;;
10471;SDS011;5283;48.876;8.962;2023-04-25T07:44:13;5.00;;;4.50;;
10471;SDS011;5283;48.876;8.962;2023-04-25T07:46:39;5.20;;;3.97;;
10471;SDS011;5283;48.876;8.962;2023-04-25T07:49:06;4.63;;;4.23;;
10471;SDS011;5283;48.876;8.962;2023-04-25T07:51:33;4.67;;;4.23;;
10471;SDS011;5283;48.876;8.962;2023-04-25T07:53:59;5.40;;;4.90;;
10471;SDS011;5283;48.876;8.962;2023-04-25T07:56:26;4.93;;;4.53;;
10471;SDS011;5283;48.876;8.962;2023-04-25T07:58:53;5.00;;;4.50;;
10471;SDS011;5283;48.876;8.962;2023-04-25T08:01:20;4.70;;;4.20;;
10471;SDS011;5283;48.876;8.962;2023-04-25T08:03:47;4.80;;;4.23;;
10471;SDS011;5283;48.876;8.962;2023-04-25T08:06:14;5.30;;;4.70;;
10471;SDS011;5283;48.876;8.962;2023-04-25T08:08:41;6.07;;;5.47;;
10471;SDS011;5283;48.876;8.962;2023-04-25T08:11:08;5.67;;;5.17;;
10471;SDS011;5283;48.876;8.962;2023-04-25T08:13:34;6.53;;;5.77;;
10471;SDS011;5283;48.876;8.962;2023-04-25T08:16:01;7.00;;;6.30;;
10471;SDS011;5283;48.876;8.962;2023-04-25T08:18:28;7.57;;;6.50;;
10471;SDS011;5283;48.876;8.962;2023-04-25T08:20:55;6.60;;;6.00;;
10471;SDS011;5283;48.876;8.962;2023-04-25T08:23:22;6.03;;;5.53;;
10471;SDS011;5283;48.876;8.962;2023-04-25T08:25:49;6.47;;;5.87;;
10471;SDS011;5283;48.876;8.962;2023-04-25T08:28:15;6.63;;;6.03;;
10471;SDS011;5283;48.876;8.962;2023-04-25T08:30:48;6.67;;;5.90;;
10471;SDS011;5283;48.876;8.962;2023-04-25T08:33:15;6.10;;;5.60;;
10471;SDS011;5283;48.876;8.962;2023-04-25T08:35:42;5.60;;;5.10;;
10471;SDS011;5283;48.876;8.962;2023-04-25T08:38:10;7.37;;;6.57;;
10471;SDS011;5283;48.876;8.962;2023-04-25T08:40:37;8.00;;;7.20;;
10471;SDS011;5283;48.876;8.962;2023-04-25T08:43:07;5.40;;;4.90;;
10471;SDS011;5283;48.876;8.962;2023-04-25T08:45:41;5.13;;;4.60;;
10471;SDS011;5283;48.876;8.962;2023-04-25T08:48:10;5.10;;;4.60;;
10471;SDS011;5283;48.876;8.962;2023-04-25T08:50:45;6.07;;;4.93;;
10471;SDS011;5283;48.876;8.962;2023-04-25T08:53:18;5.30;;;4.80;;
10471;SDS011;5283;48.876;8.962;2023-04-25T08:55:52;5.10;;;4.60;;
10471;SDS011;5283;48.876;8.962;2023-04-25T08:58:20;5.70;;;5.03;;
10471;SDS011;5283;48.876;8.962;2023-04-25T09:00:47;6.07;;;5.53;;
10471;SDS011;5283;48.876;8.962;2023-04-25T09:03:16;6.63;;;6.07;;
10471;SDS011;5283;48.876;8.962;2023-04-25T09:05:43;7.47;;;6.77;;
10471;SDS011;5283;48.876;8.962;2023-04-25T09:08:10;8.87;;;8.07;;
10471;SDS011;5283;48.876;8.962;2023-04-25T09:10:37;8.13;;;7.33;;
10471;SDS011;5283;48.876;8.962;2023-04-25T09:15:51;9.80;;;8.90;;
10471;SDS011;5283;48.876;8.962;2023-04-25T09:18:25;7.63;;;6.97;;
10471;SDS011;5283;48.876;8.962;2023-04-25T09:21:06;7.30;;;6.60;;
10471;SDS011;5283;48.876;8.962;2023-04-25T09:23:45;7.00;;;6.30;;
10471;SDS011;5283;48.876;8.962;2023-04-25T09:26:14;6.73;;;6.13;;
10471;SDS011;5283;48.876;8.962;2023-04-25T09:28:43;6.70;;;6.10;;
10471;SDS011;5283;48.876;8.962;2023-04-25T09:31:11;8.00;;;6.43;;
10471;SDS011;5283;48.876;8.962;2023-04-25T09:33:40;6.13;;;5.53;;
10471;SDS011;5283;48.876;8.962;2023-04-25T09:36:08;5.67;;;5.17;;
10471;SDS011;5283;48.876;8.962;2023-04-25T09:38:41;4.80;;;4.40;;
10471;SDS011;5283;48.876;8.962;2023-04-25T09:41:09;4.43;;;3.40;;
10471;SDS011;5283;48.876;8.962;2023-04-25T09:43:37;3.87;;;3.50;;
10471;SDS011;5283;48.876;8.962;2023-04-25T09:46:11;4.30;;;3.23;;
10471;SDS011;5283;48.876;8.962;2023-04-25T09:48:38;3.23;;;3.03;;
10471;SDS011;5283;48.876;8.962;2023-04-25T09:51:06;3.27;;;3.07;;
10471;SDS011;5283;48.876;8.962;2023-04-25T09:53:38;3.67;;;3.37;;
10471;SDS011;5283;48.876;8.962;2023-04-25T09:56:06;3.53;;;3.23;;
10471;SDS011;5283;48.876;8.962;2023-04-25T09:58:35;3.67;;;3.30;;
10471;SDS011;5283;48.876;8.962;2023-04-25T10:01:05;4.07;;;3.77;;
10471;SDS011;5283;48.876;8.962;2023-04-25T10:03:37;4.73;;;4.13;;
10471;SDS011;5283;48.876;8.962;2023-04-25T10:06:10;4.00;;;3.70;;
10471;SDS011;5283;48.876;8.962;2023-04-25T10:08:38;4.93;;;4.53;;
10471;SDS011;5283;48.876;8.962;2023-04-25T10:11:07;6.40;;;4.67;;
10471;SDS011;5283;48.876;8.962;2023-04-25T10:13:34;6.60;;;4.80;;
10471;SDS011;5283;48.876;8.962;2023-04-25T10:16:02;8.70;;;6.63;;
10471;SDS011;5283;48.876;8.962;2023-04-25T10:18:31;7.80;;;7.03;;
10471;SDS011;5283;48.876;8.962;2023-04-25T10:21:03;9.00;;;8.10;;
10471;SDS011;5283;48.876;8.962;2023-04-25T10:23:31;9.90;;;8.90;;
10471;SDS011;5283;48.876;8.962;2023-04-25T10:26:00;10.57;;;9.33;;
10471;SDS011;5283;48.876;8.962;2023-04-25T10:28:28;10.90;;;9.73;;
10471;SDS011;5283;48.876;8.962;2023-04-25T10:30:58;12.63;;;9.97;;
10471;SDS011;5283;48.876;8.962;2023-04-25T10:33:31;16.33;;;10.90;;
10471;SDS011;5283;48.876;8.962;2023-04-25T10:36:08;12.83;;;11.07;;
10471;SDS011;5283;48.876;8.962;2023-04-25T10:38:35;13.80;;;11.73;;
10471;SDS011;5283;48.876;8.962;2023-04-25T10:41:03;13.40;;;11.03;;
10471;SDS011;5283;48.876;8.962;2023-04-25T10:43:38;14.30;;;12.00;;
10471;SDS011;5283;48.876;8.962;2023-04-25T10:46:16;14.27;;;10.83;;
10471;SDS011;5283;48.876;8.962;2023-04-25T10:48:51;12.97;;;11.07;;
10471;SDS011;5283;48.876;8.962;2023-04-25T10:51:22;10.23;;;7.77;;
10471;SDS011;5283;48.876;8.962;2023-04-25T10:53:57;8.73;;;6.93;;
10471;SDS011;5283;48.876;8.962;2023-04-25T10:56:27;6.80;;;6.10;;
10471;SDS011;5283;48.876;8.962;2023-04-25T11:01:41;7.10;;;6.40;;
10471;SDS011;5283;48.876;8.962;2023-04-25T11:06:57;6.93;;;6.23;;
10471;SDS011;5283;48.876;8.962;2023-04-25T11:09:35;6.93;;;5.77;;
10471;SDS011;5283;48.876;8.962;2023-04-25T11:12:04;6.20;;;5.70;;
10471;SDS011;5283;48.876;8.962;2023-04-25T11:14:33;5.70;;;5.13;;
10471;SDS011;5283;48.876;8.962;2023-04-25T11:17:00;4.87;;;4.30;;
10471;SDS011;5283;48.876;8.962;2023-04-25T11:19:28;4.37;;;4.07;;
10471;SDS011;5283;48.876;8.962;2023-04-25T11:21:59;4.03;;;3.63;;
10471;SDS011;5283;48.876;8.962;2023-04-25T11:24:28;3.67;;;3.30;;
10471;SDS011;5283;48.876;8.962;2023-04-25T11:27:03;3.70;;;3.40;;
10471;SDS011;5283;48.876;8.962;2023-04-25T11:29:32;3.80;;;3.43;;
10471;SDS011;5283;48.876;8.962;2023-04-25T11:32:00;4.37;;;3.60;;
10471;SDS011;5283;48.876;8.962;2023-04-25T11:34:28;5.40;;;4.40;;
10471;SDS011;5283;48.876;8.962;2023-04-25T11:37:02;4.47;;;4.00;;
10471;SDS011;5283;48.876;8.962;2023-04-25T11:39:29;4.40;;;4.00;;
10471;SDS011;5283;48.876;8.962;2023-04-25T11:41:56;5.13;;;4.23;;
10471;SDS011;5283;48.876;8.962;2023-04-25T11:44:22;5.90;;;4.87;;
10471;SDS011;5283;48.876;8.962;2023-04-25T11:46:49;5.23;;;4.40;;
10471;SDS011;5283;48.876;8.962;2023-04-25T11:49:16;5.77;;;5.17;;
10471;SDS011;5283;48.876;8.962;2023-04-25T11:51:45;5.40;;;4.87;;
10471;SDS011;5283;48.876;8.962;2023-04-25T11:54:13;6.33;;;5.00;;
10471;SDS011;5283;48.876;8.962;2023-04-25T11:56:44;7.93;;;5.60;;
10471;SDS011;5283;48.876;8.962;2023-04-25T11:59:12;5.53;;;5.03;;
10471;SDS011;5283;48.876;8.962;2023-04-25T12:01:40;6.00;;;5.50;;
10471;SDS011;5283;48.876;8.962;2023-04-25T12:04:17;7.27;;;5.83;;
10471;SDS011;5283;48.876;8.962;2023-04-25T12:06:45;6.53;;;4.80;;
10471;SDS011;5283;48.876;8.962;2023-04-25T12:09:14;5.33;;;4.60;;
10471;SDS011;5283;48.876;8.962;2023-04-25T12:11:48;5.17;;;4.63;;
10471;SDS011;5283;48.876;8.962;2023-04-25T12:14:22;5.00;;;4.60;;
10471;SDS011;5283;48.876;8.962;2023-04-25T12:16:50;5.40;;;4.57;;
10471;SDS011;5283;48.876;8.962;2023-04-25T12:19:18;6.00;;;5.03;;
10471;SDS011;5283;48.876;8.962;2023-04-25T12:21:46;5.50;;;4.87;;
10471;SDS011;5283;48.876;8.962;2023-04-25T12:24:26;6.43;;;5.30;;
10471;SDS011;5283;48.876;8.962;2023-04-25T12:29:31;6.10;;;4.57;;
10471;SDS011;5283;48.876;8.962;2023-04-25T12:32:00;4.60;;;4.20;;
10471;SDS011;5283;48.876;8.962;2023-04-25T12:34:29;4.90;;;4.20;;
10471;SDS011;5283;48.876;8.962;2023-04-25T12:36:58;4.97;;;4.40;;
10471;SDS011;5283;48.876;8.962;2023-04-25T12:39:25;5.17;;;4.23;;
10471;SDS011;5283;48.876;8.962;2023-04-25T12:41:51;5.60;;;4.93;;
10471;SDS011;5283;48.876;8.962;2023-04-25T12:44:20;6.37;;;4.40;;
10471;SDS011;5283;48.876;8.962;2023-04-25T12:46:47;5.70;;;5.17;;
10471;SDS011;5283;48.876;8.962;2023-04-25T12:49:14;7.90;;;7.10;;
10471;SDS011;5283;48.876;8.962;2023-04-25T12:51:43;10.47;;;7.20;;
10471;SDS011;5283;48.876;8.962;2023-04-25T12:54:10;7.70;;;7.00;;
10471;SDS011;5283;48.876;8.962;2023-04-25T12:56:37;9.60;;;7.53;;
10471;SDS011;5283;48.876;8.962;2023-04-25T12:59:03;9.97;;;8.80;;
10471;SDS011;5283;48.876;8.962;2023-04-25T13:01:30;10.97;;;8.17;;
10471;SDS011;5283;48.876;8.962;2023-04-25T13:03:59;9.37;;;8.37;;
10471;SDS011;5283;48.876;8.962;2023-04-25T13:06:25;10.90;;;8.13;;
10471;SDS011;5283;48.876;8.962;2023-04-25T13:08:53;12.20;;;8.70;;
10471;SDS011;5283;48.876;8.962;2023-04-25T13:11:20;10.03;;;8.70;;
10471;SDS011;5283;48.876;8.962;2023-04-25T13:13:47;10.20;;;8.47;;
10471;SDS011;5283;48.876;8.962;2023-04-25T13:16:14;9.40;;;7.90;;
10471;SDS011;5283;48.876;8.962;2023-04-25T13:18:40;9.97;;;7.87;;
10471;SDS011;5283;48.876;8.962;2023-04-25T13:21:09;12.17;;;8.20;;
10471;SDS011;5283;48.876;8.962;2023-04-25T13:23:36;9.50;;;7.47;;
10471;SDS011;5283;48.876;8.962;2023-04-25T13:26:03;6.60;;;5.93;;
10471;SDS011;5283;48.876;8.962;2023-04-25T13:28:30;6.67;;;5.87;;
10471;SDS011;5283;48.876;8.962;2023-04-25T13:30:57;7.33;;;5.80;;
10471;SDS011;5283;48.876;8.962;2023-04-25T13:33:24;7.10;;;6.07;;
10471;SDS011;5283;48.876;8.962;2023-04-25T13:35:51;6.30;;;5.70;;
10471;SDS011;5283;48.876;8.962;2023-04-25T13:38:23;6.60;;;5.37;;
10471;SDS011;5283;48.876;8.962;2023-04-25T13:40:51;6.97;;;5.27;;
10471;SDS011;5283;48.876;8.962;2023-04-25T13:43:19;5.90;;;5.20;;
10471;SDS011;5283;48.876;8.962;2023-04-25T13:45:50;5.33;;;4.83;;
10471;SDS011;5283;48.876;8.962;2023-04-25T13:48:18;5.50;;;5.00;;
10471;SDS011;5283;48.876;8.962;2023-04-25T13:50:45;6.20;;;5.30;;
10471;SDS011;5283;48.876;8.962;2023-04-25T13:53:12;5.73;;;5.13;;
10471;SDS011;5283;48.876;8.962;2023-04-25T13:55:38;7.67;;;5.43;;
10471;SDS011;5283;48.876;8.962;2023-04-25T13:58:05;6.17;;;5.07;;
10471;SDS011;5283;48.876;8.962;2023-04-25T14:00:36;6.23;;;5.57;;
10471;SDS011;5283;48.876;8.962;2023-04-25T14:03:05;5.93;;;5.17;;
10471;SDS011;5283;48.876;8.962;2023-04-25T14:05:34;5.73;;;4.97;;
10471;SDS011;5283;48.876;8.962;2023-04-25T14:08:04;5.57;;;5.00;;
10471;SDS011;5283;48.876;8.962;2023-04-25T14:10:35;6.57;;;5.47;;
10471;SDS011;5283;48.876;8.962;2023-04-25T14:13:02;5.47;;;4.87;;
10471;SDS011;5283;48.876;8.962;2023-04-25T14:15:33;7.13;;;5.53;;
10471;SDS011;5283;48.876;8.962;2023-04-25T14:18:00;5.53;;;4.97;;
10471;SDS011;5283;48.876;8.962;2023-04-25T14:20:28;6.07;;;5.10;;
10471;SDS011;5283;48.876;8.962;2023-04-25T14:22:55;6.67;;;5.73;;
10471;SDS011;5283;48.876;8.962;2023-04-25T14:25:24;6.37;;;5.03;;
10471;SDS011;5283;48.876;8.962;2023-04-25T14:27:51;5.80;;;5.20;;
10471;SDS011;5283;48.876;8.962;2023-04-25T14:30:18;5.77;;;5.17;;
10471;SDS011;5283;48.876;8.962;2023-04-25T14:32:48;8.57;;;5.70;;
10471;SDS011;5283;48.876;8.962;2023-04-25T14:35:15;6.67;;;5.83;;
10471;SDS011;5283;48.876;8.962;2023-04-25T14:37:42;6.57;;;5.27;;
10471;SDS011;5283;48.876;8.962;2023-04-25T14:40:09;8.53;;;5.87;;
10471;SDS011;5283;48.876;8.962;2023-04-25T14:42:36;7.63;;;6.37;;
10471;SDS011;5283;48.876;8.962;2023-04-25T14:45:04;7.40;;;5.83;;
10471;SDS011;5283;48.876;8.962;2023-04-25T14:47:33;7.27;;;5.50;;
10471;SDS011;5283;48.876;8.962;2023-04-25T14:50:00;6.73;;;5.60;;
10471;SDS011;5283;48.876;8.962;2023-04-25T14:52:27;6.17;;;4.90;;
10471;SDS011;5283;48.876;8.962;2023-04-25T14:54:54;6.00;;;4.77;;
10471;SDS011;5283;48.876;8.962;2023-04-25T14:57:21;5.90;;;5.00;;
10471;SDS011;5283;48.876;8.962;2023-04-25T14:59:48;7.00;;;5.30;;
10471;SDS011;5283;48.876;8.962;2023-04-25T15:02:14;6.23;;;5.00;;
10471;SDS011;5283;48.876;8.962;2023-04-25T15:04:41;6.50;;;5.50;;
10471;SDS011;5283;48.876;8.962;2023-04-25T15:07:08;6.67;;;5.33;;
10471;SDS011;5283;48.876;8.962;2023-04-25T15:09:35;7.27;;;5.20;;
10471;SDS011;5283;48.876;8.962;2023-04-25T15:12:02;6.17;;;4.60;;
10471;SDS011;5283;48.876;8.962;2023-04-25T15:14:28;7.33;;;5.33;;
10471;SDS011;5283;48.876;8.962;2023-04-25T15:16:55;6.27;;;4.90;;
10471;SDS011;5283;48.876;8.962;2023-04-25T15:19:22;6.20;;;5.10;;
10471;SDS011;5283;48.876;8.962;2023-04-25T15:21:49;5.63;;;4.80;;